createdAt,value
2023-04-12T00:00:03.980Z,26.06
2023-04-12T00:01:04.000Z,26.06
2023-04-12T00:02:04.065Z,26.06
2023-04-12T00:03:04.125Z,26.05
2023-04-12T00:04:04.298Z,26.05
2023-04-12T00:05:04.167Z,26.05
2023-04-12T00:06:04.153Z,26.05
2023-04-12T00:07:04.149Z,26.05
2023-04-12T00:08:04.193Z,26.05
2023-04-12T00:09:04.305Z,26.05
2023-04-12T00:10:04.266Z,26.04
2023-04-12T00:11:04.246Z,26.04
2023-04-12T00:12:04.285Z,26.04
2023-04-12T00:13:04.294Z,26.05
2023-04-12T00:14:04.353Z,26.04
2023-04-12T00:15:05.680Z,26.03
2023-04-12T00:16:04.514Z,26.03
2023-04-12T00:17:04.330Z,26.03
2023-04-12T00:18:04.385Z,26.03
2023-04-12T00:19:04.369Z,26.03
2023-04-12T00:20:04.309Z,26.03
2023-04-12T00:21:04.348Z,26.04
2023-04-12T00:22:04.292Z,26.02
2023-04-12T00:23:04.313Z,26.02
2023-04-12T00:24:04.308Z,26.02
2023-04-12T00:25:04.352Z,26.02
2023-04-12T00:26:04.327Z,26.02
2023-04-12T00:27:04.336Z,26.01
2023-04-12T00:28:04.309Z,26.01
2023-04-12T00:29:04.299Z,26.01
2023-04-12T00:30:04.259Z,26.01
2023-04-12T00:31:04.276Z,26.00
2023-04-12T00:32:04.257Z,26.01
2023-04-12T00:33:04.277Z,26.01
2023-04-12T00:34:04.234Z,26.00
2023-04-12T00:35:04.211Z,26.00
2023-04-12T00:36:04.253Z,26.00
2023-04-12T00:37:04.287Z,26.00
2023-04-12T00:38:04.282Z,26.00
2023-04-12T00:39:04.198Z,26.00
2023-04-12T00:40:04.218Z,25.99
2023-04-12T00:41:04.182Z,26.00
2023-04-12T00:42:04.184Z,25.99
2023-04-12T00:43:04.195Z,25.99
2023-04-12T00:44:04.198Z,25.99
2023-04-12T00:45:04.164Z,25.99
2023-04-12T00:46:04.161Z,25.98
2023-04-12T00:48:04.174Z,25.98
2023-04-12T00:49:04.178Z,25.99
2023-04-12T00:50:04.156Z,25.98
2023-04-12T00:51:04.139Z,25.98
2023-04-12T00:52:04.125Z,25.98
2023-04-12T00:53:04.098Z,25.98
2023-04-12T00:54:04.109Z,25.97
2023-04-12T00:55:04.118Z,25.97
2023-04-12T00:56:04.118Z,25.97
2023-04-12T00:57:04.073Z,25.97
2023-04-12T00:58:04.085Z,25.97
2023-04-12T00:59:04.069Z,25.97
2023-04-12T01:00:04.049Z,25.97
2023-04-12T01:01:04.099Z,25.97
2023-04-12T01:02:04.167Z,25.96
2023-04-12T01:03:04.175Z,25.96
2023-04-12T01:04:04.101Z,25.95
2023-04-12T01:05:04.035Z,25.95
2023-04-12T01:06:04.013Z,25.95
2023-04-12T01:07:04.024Z,25.95
2023-04-12T01:08:04.024Z,25.94
2023-04-12T01:09:03.981Z,25.95
2023-04-12T01:10:04.006Z,25.95
2023-04-12T01:11:04.086Z,25.94
2023-04-12T01:12:04.075Z,25.95
2023-04-12T01:13:04.151Z,25.94
2023-04-12T01:14:04.395Z,25.94
2023-04-12T01:15:04.248Z,25.94
2023-04-12T01:16:04.354Z,25.94
2023-04-12T01:17:04.299Z,25.94
2023-04-12T01:18:04.432Z,25.94
2023-04-12T01:19:04.389Z,25.93
2023-04-12T01:20:06.227Z,25.93
2023-04-12T01:21:04.485Z,25.94
2023-04-12T01:22:04.519Z,25.93
2023-04-12T01:23:04.565Z,25.93
2023-04-12T01:24:04.639Z,25.93
2023-04-12T01:25:04.650Z,25.93
2023-04-12T01:26:04.751Z,25.93
2023-04-12T01:27:04.736Z,25.92
2023-04-12T01:28:04.803Z,25.93
2023-04-12T01:29:04.807Z,25.92
2023-04-12T01:30:04.882Z,25.91
2023-04-12T01:31:04.908Z,25.92
2023-04-12T01:32:05.168Z,25.92
2023-04-12T01:33:05.085Z,25.91
2023-04-12T01:34:05.022Z,25.91
2023-04-12T01:35:05.112Z,25.90
2023-04-12T01:36:06.359Z,25.90
2023-04-12T01:37:05.167Z,25.90
2023-04-12T01:38:05.173Z,25.90
2023-04-12T01:39:05.186Z,25.90
2023-04-12T01:40:05.263Z,25.90
2023-04-12T01:41:05.340Z,25.89
2023-04-12T01:42:05.361Z,25.90
2023-04-12T01:43:05.424Z,25.90
2023-04-12T01:44:05.414Z,25.89
2023-04-12T01:45:05.476Z,25.89
2023-04-12T01:46:05.545Z,25.89
2023-04-12T01:47:05.557Z,25.90
2023-04-12T01:48:05.708Z,25.90
2023-04-12T01:49:05.635Z,25.89
2023-04-12T01:50:05.722Z,25.88
2023-04-12T01:51:05.766Z,25.89
2023-04-12T01:52:05.848Z,25.89
2023-04-12T01:53:05.844Z,25.89
2023-04-12T01:54:05.901Z,25.89
2023-04-12T01:55:05.934Z,25.89
2023-04-12T01:56:06.002Z,25.88
2023-04-12T01:57:06.024Z,25.87
2023-04-12T01:58:06.093Z,25.88
2023-04-12T01:59:06.173Z,25.88
2023-04-12T02:00:06.206Z,25.88
2023-04-12T02:01:06.252Z,25.87
2023-04-12T02:02:06.338Z,25.87
2023-04-12T02:03:06.452Z,25.87
2023-04-12T02:04:06.587Z,25.87
2023-04-12T02:05:06.434Z,25.87
2023-04-12T02:06:06.495Z,25.86
2023-04-12T02:07:06.560Z,25.86
2023-04-12T02:08:06.567Z,25.86
2023-04-12T02:09:06.629Z,25.86
2023-04-12T02:10:06.703Z,25.86
2023-04-12T02:11:06.726Z,25.86
2023-04-12T02:12:06.814Z,25.86
2023-04-12T02:13:06.862Z,25.86
2023-04-12T02:14:06.854Z,25.85
2023-04-12T02:15:06.904Z,25.85
2023-04-12T02:16:06.988Z,25.85
2023-04-12T02:17:07.000Z,25.85
2023-04-12T02:18:07.070Z,25.85
2023-04-12T02:19:07.115Z,25.84
2023-04-12T02:20:07.150Z,25.84
2023-04-12T02:21:07.166Z,25.84
2023-04-12T02:22:07.248Z,25.84
2023-04-12T02:23:07.320Z,25.84
2023-04-12T02:24:07.332Z,25.84
2023-04-12T02:25:07.425Z,25.85
2023-04-12T02:26:07.397Z,25.84
2023-04-12T02:27:07.506Z,25.84
2023-04-12T02:28:07.519Z,25.84
2023-04-12T02:29:07.561Z,25.84
2023-04-12T02:30:07.650Z,25.83
2023-04-12T02:31:07.747Z,25.84
2023-04-12T02:32:07.748Z,25.83
2023-04-12T02:33:07.872Z,25.83
2023-04-12T02:34:07.817Z,25.83
2023-04-12T02:35:07.888Z,25.83
2023-04-12T02:36:07.929Z,25.83
2023-04-12T02:37:07.939Z,25.83
2023-04-12T02:38:07.987Z,25.83
2023-04-12T02:39:08.052Z,25.82
2023-04-12T02:40:08.109Z,25.82
2023-04-12T02:41:08.138Z,25.83
2023-04-12T02:42:08.191Z,25.83
2023-04-12T02:43:08.242Z,25.83
2023-04-12T02:44:08.321Z,25.82
2023-04-12T02:45:08.313Z,25.82
2023-04-12T02:46:08.416Z,25.83
2023-04-12T02:47:08.463Z,25.82
2023-04-12T02:48:08.527Z,25.82
2023-04-12T02:49:08.578Z,25.81
2023-04-12T02:50:08.591Z,25.81
2023-04-12T02:51:08.664Z,25.82
2023-04-12T02:52:08.697Z,25.81
2023-04-12T02:53:08.753Z,25.81
2023-04-12T02:54:08.812Z,25.80
2023-04-12T02:55:08.822Z,25.80
2023-04-12T02:56:08.911Z,25.80
2023-04-12T02:57:08.937Z,25.80
2023-04-12T02:58:09.028Z,25.80
2023-04-12T02:59:09.023Z,25.80
2023-04-12T03:00:09.137Z,25.79
2023-04-12T03:01:09.229Z,25.79
2023-04-12T03:02:09.322Z,25.79
2023-04-12T03:03:09.440Z,25.79
2023-04-12T03:04:09.439Z,25.79
2023-04-12T03:05:09.415Z,25.79
2023-04-12T03:06:09.494Z,25.79
2023-04-12T03:07:09.461Z,25.79
2023-04-12T03:08:09.533Z,25.79
2023-04-12T03:09:09.615Z,25.78
2023-04-12T03:10:09.650Z,25.78
2023-04-12T03:11:09.750Z,25.78
2023-04-12T03:12:09.769Z,25.78
2023-04-12T03:13:09.849Z,25.78
2023-04-12T03:14:09.851Z,25.78
2023-04-12T03:15:09.901Z,25.77
2023-04-12T03:16:10.033Z,25.78
2023-04-12T03:17:10.017Z,25.78
2023-04-12T03:18:10.170Z,25.77
2023-04-12T03:19:10.134Z,25.77
2023-04-12T03:20:10.434Z,25.77
2023-04-12T03:21:10.249Z,25.77
2023-04-12T03:22:10.284Z,25.77
2023-04-12T03:23:10.292Z,25.76
2023-04-12T03:24:10.349Z,25.77
2023-04-12T03:25:10.409Z,25.76
2023-04-12T03:26:10.442Z,25.76
2023-04-12T03:27:10.498Z,25.76
2023-04-12T03:28:10.534Z,25.76
2023-04-12T03:29:11.296Z,25.76
2023-04-12T03:30:10.577Z,25.76
2023-04-12T03:31:10.756Z,25.77
2023-04-12T03:32:10.691Z,25.75
2023-04-12T03:33:10.739Z,25.75
2023-04-12T03:34:10.826Z,25.76
2023-04-12T03:35:10.834Z,25.75
2023-04-12T03:36:10.886Z,25.75
2023-04-12T03:37:10.985Z,25.76
2023-04-12T03:38:11.002Z,25.75
2023-04-12T03:39:11.105Z,25.74
2023-04-12T03:40:11.126Z,25.75
2023-04-12T03:41:11.200Z,25.75
2023-04-12T03:42:21.504Z,25.75
2023-04-12T03:43:12.238Z,25.74
2023-04-12T03:44:11.222Z,25.74
2023-04-12T03:45:11.224Z,25.74
2023-04-12T03:46:11.273Z,25.74
2023-04-12T03:47:11.205Z,25.74
2023-04-12T03:48:11.196Z,25.74
2023-04-12T03:49:11.221Z,25.74
2023-04-12T03:50:12.316Z,25.74
2023-04-12T03:51:11.235Z,25.74
2023-04-12T03:52:11.239Z,25.73
2023-04-12T03:53:11.239Z,25.73
2023-04-12T03:54:11.300Z,25.72
2023-04-12T03:55:11.383Z,25.72
2023-04-12T03:56:11.404Z,25.72
2023-04-12T03:57:11.469Z,25.72
2023-04-12T03:58:11.528Z,25.72
2023-04-12T03:59:11.552Z,25.72
2023-04-12T04:00:11.598Z,25.72
2023-04-12T04:01:11.702Z,25.72
2023-04-12T04:02:11.766Z,25.73
2023-04-12T04:03:11.811Z,25.72
2023-04-12T04:04:11.997Z,25.71
2023-04-12T04:05:11.972Z,25.72
2023-04-12T04:06:11.946Z,25.71
2023-04-12T04:07:12.068Z,25.70
2023-04-12T04:08:12.077Z,25.69
2023-04-12T04:09:12.100Z,25.69
2023-04-12T04:10:12.218Z,25.68
2023-04-12T04:11:12.195Z,25.68
2023-04-12T04:12:12.236Z,25.68
2023-04-12T04:13:12.230Z,25.67
2023-04-12T04:14:12.272Z,25.67
2023-04-12T04:15:12.333Z,25.66
2023-04-12T04:16:12.432Z,25.66
2023-04-12T04:17:12.412Z,25.67
2023-04-12T04:18:12.401Z,25.67
2023-04-12T04:19:12.444Z,25.67
2023-04-12T04:20:12.479Z,25.66
2023-04-12T04:21:12.566Z,25.66
2023-04-12T04:22:12.613Z,25.65
2023-04-12T04:23:12.639Z,25.64
2023-04-12T04:24:12.684Z,25.64
2023-04-12T04:25:12.793Z,25.64
2023-04-12T04:26:12.804Z,25.62
2023-04-12T04:27:12.848Z,25.61
2023-04-12T04:28:12.846Z,25.60
2023-04-12T04:29:12.888Z,25.58
2023-04-12T04:30:13.026Z,25.58
2023-04-12T04:31:13.019Z,25.57
2023-04-12T04:32:13.091Z,25.57
2023-04-12T04:33:13.055Z,25.57
2023-04-12T04:34:13.095Z,25.57
2023-04-12T04:35:13.172Z,25.57
2023-04-12T04:36:13.201Z,25.57
2023-04-12T04:37:13.221Z,25.57
2023-04-12T04:38:13.307Z,25.57
2023-04-12T04:39:13.311Z,25.57
2023-04-12T04:40:13.305Z,25.57
2023-04-12T04:41:13.309Z,25.58
2023-04-12T04:42:13.361Z,25.57
2023-04-12T04:43:13.430Z,25.58
2023-04-12T04:44:13.473Z,25.58
2023-04-12T04:45:13.521Z,25.58
2023-04-12T04:46:13.686Z,25.58
2023-04-12T04:47:13.579Z,25.58
2023-04-12T04:48:13.666Z,25.59
2023-04-12T04:49:13.705Z,25.59
2023-04-12T04:50:13.753Z,25.60
2023-04-12T04:51:13.829Z,25.60
2023-04-12T04:52:13.863Z,25.60
2023-04-12T04:53:13.974Z,25.60
2023-04-12T04:54:13.951Z,25.61
2023-04-12T04:55:14.063Z,25.61
2023-04-12T04:56:14.037Z,25.61
2023-04-12T04:57:14.068Z,25.61
2023-04-12T04:58:14.111Z,25.61
2023-04-12T04:59:14.170Z,25.61
2023-04-12T05:00:14.196Z,25.61
2023-04-12T05:01:14.335Z,25.61
2023-04-12T05:02:14.323Z,25.61
2023-04-12T05:03:14.377Z,25.61
2023-04-12T05:04:14.406Z,25.61
2023-04-12T05:05:14.424Z,25.61
2023-04-12T05:06:14.430Z,25.61
2023-04-12T05:07:14.479Z,25.61
2023-04-12T05:08:14.524Z,25.61
2023-04-12T05:09:14.629Z,25.61
2023-04-12T05:10:14.641Z,25.61
2023-04-12T05:11:14.609Z,25.62
2023-04-12T05:12:14.643Z,25.62
2023-04-12T05:13:14.702Z,25.62
2023-04-12T05:14:14.782Z,25.63
2023-04-12T05:15:14.817Z,25.63
2023-04-12T05:16:14.943Z,25.62
2023-04-12T05:17:14.927Z,25.63
2023-04-12T05:19:33.579Z,25.59
2023-04-12T05:20:33.569Z,25.60
2023-04-12T05:21:33.555Z,25.61
2023-04-12T05:22:33.570Z,25.62
2023-04-12T05:23:33.573Z,25.62
2023-04-12T05:24:33.592Z,25.62
2023-04-12T05:25:33.526Z,25.63
2023-04-12T05:26:33.537Z,25.62
2023-04-12T05:27:33.531Z,25.63
2023-04-12T05:28:33.498Z,25.62
2023-04-12T05:29:33.514Z,25.62
2023-04-12T05:30:33.503Z,25.62
2023-04-12T05:31:33.528Z,25.63
2023-04-12T05:32:33.558Z,25.63
2023-04-12T05:33:33.569Z,25.62
2023-04-12T05:34:33.463Z,25.57
2023-04-12T05:35:33.473Z,25.41
2023-04-12T05:36:33.492Z,25.17
2023-04-12T05:37:33.446Z,24.88
2023-04-12T05:38:33.429Z,24.57
2023-04-12T05:39:33.443Z,24.29
2023-04-12T05:40:33.425Z,24.03
2023-04-12T05:41:33.497Z,23.79
2023-04-12T05:42:33.413Z,23.58
2023-04-12T05:43:33.426Z,23.45
2023-04-12T05:44:33.439Z,23.33
2023-04-12T05:45:33.400Z,23.19
2023-04-12T05:46:33.468Z,23.12
2023-04-12T05:47:33.453Z,23.16
2023-04-12T05:48:33.396Z,23.21
2023-04-12T05:49:33.822Z,23.31
2023-04-12T05:50:33.381Z,23.43
2023-04-12T05:51:40.950Z,23.54
2023-04-12T05:52:34.351Z,23.65
2023-04-12T05:53:33.351Z,23.77
2023-04-12T05:54:33.360Z,23.89
2023-04-12T05:55:34.030Z,24.00
2023-04-12T05:56:33.318Z,24.11
2023-04-12T05:57:33.433Z,24.22
2023-04-12T05:58:33.304Z,24.32
2023-04-12T05:59:33.304Z,24.41
2023-04-12T06:00:33.365Z,24.49
2023-04-12T06:01:33.281Z,24.57
2023-04-12T06:02:33.444Z,24.65
2023-04-12T06:03:33.402Z,24.73
2023-04-12T06:04:48.757Z,24.79
2023-04-12T06:05:34.336Z,24.85
2023-04-12T06:06:33.249Z,24.91
2023-04-12T06:07:33.284Z,24.95
2023-04-12T06:08:35.480Z,25.00
2023-04-12T06:09:33.265Z,25.06
2023-04-12T06:10:33.240Z,25.10
2023-04-12T06:11:33.235Z,25.15
2023-04-12T06:12:33.362Z,25.18
2023-04-12T06:13:33.223Z,25.22
2023-04-12T06:14:33.242Z,25.26
2023-04-12T06:15:33.214Z,25.30
2023-04-12T06:16:33.342Z,25.34
2023-04-12T06:17:33.201Z,25.37
2023-04-12T06:18:33.165Z,25.39
2023-04-12T06:19:33.295Z,25.42
2023-04-12T06:20:33.178Z,25.43
2023-04-12T06:21:33.176Z,25.45
2023-04-12T06:22:33.144Z,25.47
2023-04-12T06:23:33.155Z,25.49
2023-04-12T06:24:33.314Z,25.52
2023-04-12T06:25:33.161Z,25.55
2023-04-12T06:26:39.678Z,25.58
2023-04-12T06:27:34.222Z,25.61
2023-04-12T06:28:33.407Z,25.64
2023-04-12T06:29:33.150Z,25.66
2023-04-12T06:30:33.117Z,25.68
2023-04-12T06:31:33.112Z,25.69
2023-04-12T06:32:33.133Z,25.71
2023-04-12T06:33:33.088Z,25.73
2023-04-12T06:34:34.409Z,25.74
2023-04-12T06:35:33.092Z,25.77
2023-04-12T06:36:33.120Z,25.80
2023-04-12T06:37:33.177Z,25.81
2023-04-12T06:38:33.214Z,25.80
2023-04-12T06:39:33.297Z,25.58
2023-04-12T06:40:48.312Z,25.23
2023-04-12T06:41:33.264Z,24.80
2023-04-12T06:42:33.287Z,24.50
2023-04-12T06:43:33.325Z,24.26
2023-04-12T06:44:33.396Z,24.14
2023-04-12T06:45:33.356Z,24.12
2023-04-12T06:46:33.816Z,24.13
2023-04-12T06:47:33.223Z,24.17
2023-04-12T06:48:33.246Z,24.23
2023-04-12T06:49:33.197Z,24.28
2023-04-12T06:50:33.362Z,24.37
2023-04-12T06:51:33.329Z,24.44
2023-04-12T06:52:33.215Z,24.54
2023-04-12T06:53:33.291Z,24.62
2023-04-12T06:54:33.200Z,24.70
2023-04-12T06:55:33.139Z,24.77
2023-04-12T06:56:33.153Z,24.84
2023-04-12T06:57:33.126Z,24.91
2023-04-12T06:58:33.111Z,24.98
2023-04-12T06:59:33.104Z,25.05
2023-04-12T07:00:33.398Z,25.12
2023-04-12T07:01:33.453Z,25.18
2023-04-12T07:02:33.370Z,25.23
2023-04-12T07:03:33.194Z,25.28
2023-04-12T07:04:33.120Z,25.34
2023-04-12T07:05:33.114Z,25.40
2023-04-12T07:06:33.134Z,25.44
2023-04-12T07:07:33.086Z,25.48
2023-04-12T07:08:33.362Z,25.52
2023-04-12T07:09:33.058Z,25.56
2023-04-12T07:10:33.065Z,25.60
2023-04-12T07:11:33.010Z,25.64
2023-04-12T07:12:33.067Z,25.67
2023-04-12T07:13:33.040Z,25.69
2023-04-12T07:14:33.056Z,25.72
2023-04-12T07:15:33.049Z,25.75
2023-04-12T07:16:33.144Z,25.79
2023-04-12T07:17:33.066Z,25.81
2023-04-12T07:18:33.359Z,25.83
2023-04-12T07:19:33.346Z,25.87
2023-04-12T07:20:32.995Z,25.91
2023-04-12T07:21:33.821Z,25.93
2023-04-12T07:22:33.383Z,25.95
2023-04-12T07:23:33.357Z,25.98
2023-04-12T07:24:33.343Z,26.00
2023-04-12T07:25:32.940Z,26.02
2023-04-12T07:26:32.949Z,26.03
2023-04-12T07:27:32.995Z,26.04
2023-04-12T07:28:32.964Z,26.06
2023-04-12T07:29:32.932Z,26.07
2023-04-12T07:30:32.933Z,26.10
2023-04-12T07:31:32.930Z,26.12
2023-04-12T07:32:32.950Z,26.14
2023-04-12T07:33:32.960Z,26.15
2023-04-12T07:34:32.958Z,26.16
2023-04-12T07:35:32.940Z,26.16
2023-04-12T07:36:32.935Z,26.14
2023-04-12T07:37:33.348Z,26.13
2023-04-12T07:38:32.988Z,26.10
2023-04-12T07:39:33.029Z,26.06
2023-04-12T07:40:33.064Z,26.04
2023-04-12T07:41:33.104Z,26.03
2023-04-12T07:42:33.167Z,26.04
2023-04-12T07:43:33.151Z,26.05
2023-04-12T07:44:33.232Z,26.06
2023-04-12T07:45:33.254Z,26.07
2023-04-12T07:46:33.312Z,26.10
2023-04-12T07:47:33.338Z,26.15
2023-04-12T07:48:33.329Z,26.18
2023-04-12T07:49:33.360Z,26.22
2023-04-12T07:50:33.323Z,26.26
2023-04-12T07:51:33.360Z,26.30
2023-04-12T07:52:33.345Z,26.33
2023-04-12T07:53:33.860Z,26.38
2023-04-12T07:54:33.350Z,26.42
2023-04-12T07:55:33.370Z,26.47
2023-04-12T07:56:33.342Z,26.51
2023-04-12T07:57:34.237Z,26.55
2023-04-12T07:58:33.380Z,26.57
2023-04-12T07:59:33.344Z,26.61
2023-04-12T08:00:33.387Z,26.66
2023-04-12T08:01:33.396Z,26.71
2023-04-12T08:02:33.563Z,26.75
2023-04-12T08:03:33.697Z,26.78
2023-04-12T08:04:33.514Z,26.80
2023-04-12T08:05:33.595Z,26.83
2023-04-12T08:06:34.388Z,26.86
2023-04-12T08:07:33.685Z,26.92
2023-04-12T08:08:33.865Z,26.95
2023-04-12T08:09:33.780Z,26.98
2023-04-12T08:10:33.871Z,27.03
2023-04-12T08:11:33.869Z,27.06
2023-04-12T08:12:33.991Z,27.10
2023-04-12T08:13:33.997Z,27.15
2023-04-12T08:14:34.045Z,27.18
2023-04-12T08:16:52.650Z,27.20
2023-04-12T08:17:52.644Z,27.24
2023-04-12T08:18:52.614Z,27.26
2023-04-12T08:19:52.596Z,27.30
2023-04-12T08:20:52.609Z,27.32
2023-04-12T08:21:52.590Z,27.34
2023-04-12T08:22:52.614Z,27.35
2023-04-12T08:23:52.597Z,27.36
2023-04-12T08:24:52.605Z,27.38
2023-04-12T08:25:52.623Z,27.39
2023-04-12T08:26:52.537Z,27.40
2023-04-12T08:27:52.556Z,27.40
2023-04-12T08:28:52.560Z,27.38
2023-04-12T08:29:52.532Z,27.34
2023-04-12T08:30:52.597Z,27.29
2023-04-12T08:31:52.547Z,27.12
2023-04-12T08:32:52.599Z,27.03
2023-04-12T08:33:52.550Z,26.97
2023-04-12T08:34:52.505Z,26.90
2023-04-12T08:35:52.560Z,26.85
2023-04-12T08:36:52.594Z,26.81
2023-04-12T08:37:52.477Z,26.78
2023-04-12T08:38:52.579Z,26.74
2023-04-12T08:39:52.497Z,26.70
2023-04-12T08:40:52.454Z,26.65
2023-04-12T08:41:52.474Z,26.61
2023-04-12T08:42:52.446Z,26.58
2023-04-12T08:43:52.492Z,26.53
2023-04-12T08:44:52.442Z,26.51
2023-04-12T08:45:52.435Z,26.50
2023-04-12T08:46:53.568Z,26.51
2023-04-12T08:47:52.493Z,26.51
2023-04-12T08:48:52.456Z,26.54
2023-04-12T08:49:52.390Z,26.57
2023-04-12T08:50:52.415Z,26.60
2023-04-12T08:51:52.401Z,26.62
2023-04-12T08:52:52.394Z,26.65
2023-04-12T08:53:52.396Z,26.68
2023-04-12T08:54:52.398Z,26.72
2023-04-12T08:55:52.370Z,26.75
2023-04-12T08:56:52.367Z,26.77
2023-04-12T08:57:52.358Z,26.80
2023-04-12T08:58:52.364Z,26.86
2023-04-12T08:59:52.329Z,26.90
2023-04-12T09:00:52.355Z,26.94
2023-04-12T09:01:52.356Z,26.99
2023-04-12T09:02:52.542Z,27.04
2023-04-12T09:03:52.603Z,27.10
2023-04-12T09:04:52.465Z,27.16
2023-04-12T09:05:52.327Z,27.25
2023-04-12T09:06:52.304Z,27.31
2023-04-12T09:07:52.271Z,27.36
2023-04-12T09:08:52.334Z,27.41
2023-04-12T09:09:52.260Z,27.46
2023-04-12T09:10:52.331Z,27.49
2023-04-12T09:11:52.261Z,27.55
2023-04-12T09:12:52.910Z,27.59
2023-04-12T09:13:52.249Z,27.63
2023-04-12T09:14:52.267Z,27.66
2023-04-12T09:15:52.848Z,27.68
2023-04-12T09:16:52.280Z,27.70
2023-04-12T09:17:52.353Z,27.72
2023-04-12T09:18:52.261Z,27.76
2023-04-12T09:19:52.220Z,27.80
2023-04-12T09:20:52.200Z,27.86
2023-04-12T09:21:52.212Z,27.94
2023-04-12T09:22:52.171Z,28.02
2023-04-12T09:23:52.135Z,28.07
2023-04-12T09:24:52.205Z,28.13
2023-04-12T09:25:52.209Z,28.19
2023-04-12T09:26:52.167Z,28.22
2023-04-12T09:27:52.160Z,28.27
2023-04-12T09:28:52.171Z,28.31
2023-04-12T09:29:52.270Z,28.35
2023-04-12T09:30:52.256Z,28.37
2023-04-12T09:31:52.318Z,28.41
2023-04-12T09:32:52.390Z,28.42
2023-04-12T09:33:52.402Z,28.43
2023-04-12T09:34:52.469Z,28.45
2023-04-12T09:35:52.545Z,28.44
2023-04-12T09:36:52.532Z,28.44
2023-04-12T09:37:52.591Z,28.45
2023-04-12T09:38:52.647Z,28.47
2023-04-12T09:39:52.848Z,28.49
2023-04-12T09:40:52.725Z,28.53
2023-04-12T09:41:52.756Z,28.56
2023-04-12T09:42:52.870Z,28.57
2023-04-12T09:43:52.867Z,28.60
2023-04-12T09:44:52.906Z,28.65
2023-04-12T09:45:52.922Z,28.69
2023-04-12T09:46:53.203Z,28.72
2023-04-12T09:47:53.068Z,28.76
2023-04-12T09:48:53.025Z,28.79
2023-04-12T09:49:53.021Z,28.84
2023-04-12T09:50:53.129Z,28.87
2023-04-12T09:51:53.092Z,28.87
2023-04-12T09:52:53.103Z,28.76
2023-04-12T09:53:53.129Z,28.66
2023-04-12T09:54:53.153Z,28.58
2023-04-12T09:55:53.227Z,28.51
2023-04-12T09:56:53.292Z,28.44
2023-04-12T09:57:53.285Z,28.39
2023-04-12T09:58:53.407Z,28.35
2023-04-12T09:59:53.461Z,28.30
2023-04-12T10:00:53.517Z,28.27
2023-04-12T10:01:53.647Z,28.23
2023-04-12T10:02:53.783Z,28.20
2023-04-12T10:03:53.838Z,28.17
2023-04-12T10:04:53.816Z,28.13
2023-04-12T10:05:53.705Z,28.09
2023-04-12T10:06:53.711Z,28.07
2023-04-12T10:07:54.770Z,28.05
2023-04-12T10:08:53.775Z,28.02
2023-04-12T10:09:53.764Z,28.00
2023-04-12T10:10:53.794Z,27.98
2023-04-12T10:11:53.964Z,27.97
2023-04-12T10:12:53.805Z,27.96
2023-04-12T10:13:53.799Z,27.95
2023-04-12T10:14:53.856Z,27.94
2023-04-12T10:15:53.906Z,27.94
2023-04-12T10:16:53.886Z,27.92
2023-04-12T10:17:53.987Z,27.91
2023-04-12T10:18:53.879Z,27.89
2023-04-12T10:19:53.806Z,27.89
2023-04-12T10:20:53.852Z,27.88
2023-04-12T10:21:53.869Z,27.88
2023-04-12T10:22:53.882Z,27.87
2023-04-12T10:23:53.875Z,27.87
2023-04-12T10:24:53.865Z,27.88
2023-04-12T10:25:55.719Z,27.93
2023-04-12T10:26:53.881Z,28.04
2023-04-12T10:27:53.970Z,28.15
2023-04-12T10:28:53.973Z,28.22
2023-04-12T10:29:53.975Z,28.25
2023-04-12T10:30:53.987Z,28.21
2023-04-12T10:31:54.064Z,28.20
2023-04-12T10:32:54.035Z,28.19
2023-04-12T10:33:54.023Z,28.19
2023-04-12T10:34:54.018Z,28.20
2023-04-12T10:35:54.063Z,28.20
2023-04-12T10:36:54.065Z,28.22
2023-04-12T10:37:54.156Z,28.23
2023-04-12T10:38:54.233Z,28.26
2023-04-12T10:39:54.271Z,28.28
2023-04-12T10:40:54.302Z,28.31
2023-04-12T10:41:54.377Z,28.34
2023-04-12T10:42:54.418Z,28.37
2023-04-12T10:43:54.441Z,28.40
2023-04-12T10:44:54.511Z,28.43
2023-04-12T10:45:54.530Z,28.46
2023-04-12T10:46:54.625Z,28.49
2023-04-12T10:47:54.675Z,28.52
2023-04-12T10:48:54.746Z,28.51
2023-04-12T10:49:54.665Z,28.54
2023-04-12T10:50:54.676Z,28.58
2023-04-12T10:51:54.820Z,28.61
2023-04-12T10:52:54.745Z,28.63
2023-04-12T10:53:54.772Z,28.66
2023-04-12T10:54:54.781Z,28.70
2023-04-12T10:55:54.768Z,28.71
2023-04-12T10:56:54.838Z,28.72
2023-04-12T10:57:54.795Z,28.74
2023-04-12T10:58:54.837Z,28.76
2023-04-12T10:59:54.864Z,28.77
2023-04-12T11:00:54.963Z,28.78
2023-04-12T11:01:54.984Z,28.79
2023-04-12T11:02:54.945Z,28.81
2023-04-12T11:03:55.026Z,28.82
2023-04-12T11:04:54.874Z,28.83
2023-04-12T11:05:54.838Z,28.83
2023-04-12T11:06:56.776Z,28.84
2023-04-12T11:07:54.902Z,28.84
2023-04-12T11:08:54.940Z,28.84
2023-04-12T11:09:54.789Z,28.83
2023-04-12T11:10:54.829Z,28.79
2023-04-12T11:11:54.826Z,28.78
2023-04-12T11:12:54.768Z,28.77
2023-04-12T11:13:54.816Z,28.75
2023-04-12T11:14:54.839Z,28.73
2023-04-12T11:15:54.734Z,28.71
2023-04-12T11:16:54.829Z,28.68
2023-04-12T11:17:54.927Z,28.67
2023-04-12T11:18:54.800Z,28.64
2023-04-12T11:19:54.714Z,28.63
2023-04-12T11:20:54.717Z,28.62
2023-04-12T11:21:54.715Z,28.59
2023-04-12T11:22:54.756Z,28.58
2023-04-12T11:23:54.739Z,28.56
2023-04-12T11:24:54.668Z,28.55
2023-04-12T11:25:54.822Z,28.54
2023-04-12T11:26:54.702Z,28.53
2023-04-12T11:27:54.716Z,28.52
2023-04-12T11:28:54.800Z,28.50
2023-04-12T11:29:54.693Z,28.48
2023-04-12T11:30:54.718Z,28.46
2023-04-12T11:31:54.690Z,28.46
2023-04-12T11:32:54.662Z,28.45
2023-04-12T11:33:54.644Z,28.44
2023-04-12T11:34:54.671Z,28.44
2023-04-12T11:35:54.612Z,28.44
2023-04-12T11:36:54.642Z,28.43
2023-04-12T11:37:54.625Z,28.43
2023-04-12T11:38:54.688Z,28.41
2023-04-12T11:39:54.626Z,28.41
2023-04-12T11:40:54.581Z,28.39
2023-04-12T11:41:54.593Z,28.40
2023-04-12T11:42:54.578Z,28.40
2023-04-12T11:43:54.581Z,28.38
2023-04-12T11:44:57.558Z,28.38
2023-04-12T11:45:55.639Z,28.37
2023-04-12T11:46:54.546Z,28.38
2023-04-12T11:47:54.583Z,28.39
2023-04-12T11:48:54.681Z,28.39
2023-04-12T11:49:54.543Z,28.40
2023-04-12T11:51:07.807Z,28.42
2023-04-12T11:51:55.638Z,28.43
2023-04-12T11:52:54.532Z,28.43
2023-04-12T11:53:54.743Z,28.45
2023-04-12T11:54:54.556Z,28.46
2023-04-12T11:55:54.503Z,28.48
2023-04-12T11:56:54.551Z,28.49
2023-04-12T11:57:54.458Z,28.49
2023-04-12T11:58:54.457Z,28.50
2023-04-12T11:59:54.468Z,28.52
2023-04-12T12:00:54.505Z,28.52
2023-04-12T12:01:54.491Z,28.52
2023-04-12T12:03:06.681Z,28.52
2023-04-12T12:03:55.885Z,28.52
2023-04-12T12:04:54.512Z,28.53
2023-04-12T12:05:54.575Z,28.53
2023-04-12T12:06:54.956Z,28.53
2023-04-12T12:07:54.409Z,28.53
2023-04-12T12:08:54.392Z,28.53
2023-04-12T12:09:54.405Z,28.53
2023-04-12T12:11:06.378Z,28.54
2023-04-12T12:11:55.380Z,28.54
2023-04-12T12:12:54.381Z,28.54
2023-04-12T12:13:54.376Z,28.54
2023-04-12T12:14:54.328Z,28.54
2023-04-12T12:15:54.373Z,28.56
2023-04-12T12:16:54.373Z,28.56
2023-04-12T12:17:54.434Z,28.57
2023-04-12T12:18:54.400Z,28.57
2023-04-12T12:19:54.348Z,28.58
2023-04-12T12:20:54.315Z,28.59
2023-04-12T12:21:54.312Z,28.58
2023-04-12T12:22:54.319Z,28.59
2023-04-12T12:23:54.375Z,28.59
2023-04-12T12:24:54.278Z,28.59
2023-04-12T12:26:02.920Z,28.60
2023-04-12T12:26:55.293Z,28.58
2023-04-12T12:27:54.340Z,28.59
2023-04-12T12:28:54.312Z,28.59
2023-04-12T12:29:54.297Z,28.59
2023-04-12T12:30:54.366Z,28.58
2023-04-12T12:31:54.307Z,28.58
2023-04-12T12:32:54.343Z,28.57
2023-04-12T12:33:54.230Z,28.57
2023-04-12T12:34:54.235Z,28.57
2023-04-12T12:35:54.285Z,28.57
2023-04-12T12:36:54.223Z,28.57
2023-04-12T12:37:54.216Z,28.57
2023-04-12T12:38:54.239Z,28.55
2023-04-12T12:39:54.230Z,28.55
2023-04-12T12:40:54.215Z,28.54
2023-04-12T12:41:54.194Z,28.54
2023-04-12T12:42:54.225Z,28.52
2023-04-12T12:43:54.269Z,28.52
2023-04-12T12:44:54.307Z,28.51
2023-04-12T12:45:54.346Z,28.51
2023-04-12T12:47:00.745Z,28.51
2023-04-12T12:47:55.407Z,28.50
2023-04-12T12:48:54.371Z,28.50
2023-04-12T12:49:54.397Z,28.49
2023-04-12T12:50:54.360Z,28.50
2023-04-12T12:51:54.360Z,28.50
2023-04-12T12:52:54.361Z,28.51
2023-04-12T12:53:54.386Z,28.51
2023-04-12T12:54:54.355Z,28.50
2023-04-12T12:55:54.328Z,28.50